Time;durP1;ratioP1;P1;durP2;ratioP2;P2;SDS_P1;SDS_P2;PMS_P1;PMS_P2;Temp;Humidity;BMP_temperature;BMP_pressure;BME280_temperature;BME280_humidity;BME280_pressure;Samples;Min_cycle;Max_cycle;Signal;HPM_P1;HPM_P2
2022/09/15 00:00:41;;;;;;;9.93;7.85;;;17.60;98.60;;;;;;5034739;28;20026;-75
2022/09/15 00:03:07;;;;;;;8.68;7.88;;;17.60;98.50;;;;;;5037329;28;20106;-75
2022/09/15 00:05:33;;;;;;;12.10;8.95;;;17.60;98.50;;;;;;5054483;28;20052;-75
2022/09/15 00:07:58;;;;;;;12.13;7.97;;;17.50;98.60;;;;;;5054191;28;20385;-74
2022/09/15 00:10:25;;;;;;;10.05;8.20;;;17.50;98.60;;;;;;5054356;28;20367;-75
2022/09/15 00:12:51;;;;;;;9.10;8.20;;;17.60;98.60;;;;;;5054032;28;20100;-74
2022/09/15 00:15:17;;;;;;;10.40;8.40;;;17.50;98.60;;;;;;5035104;28;20033;-75
2022/09/15 00:17:48;;;;;;;12.95;8.43;;;17.50;98.60;;;;;;5034420;28;20073;-74
2022/09/15 00:20:15;;;;;;;10.37;8.53;;;17.50;98.60;;;;;;5034596;28;20018;-75
2022/09/15 00:22:40;;;;;;;9.40;8.43;;;17.50;98.60;;;;;;5033875;28;20528;-75
2022/09/15 00:25:06;;;;;;;8.90;7.80;;;17.50;98.70;;;;;;5050507;28;20029;-74
2022/09/15 00:27:32;;;;;;;11.70;8.45;;;17.40;98.70;;;;;;5053512;28;20083;-77
2022/09/15 00:29:58;;;;;;;10.93;8.80;;;17.40;98.70;;;;;;5054131;28;20036;-75
2022/09/15 00:32:24;;;;;;;9.25;8.35;;;17.40;98.70;;;;;;5052636;28;20477;-74
2022/09/15 00:34:50;;;;;;;10.73;9.63;;;17.40;98.60;;;;;;5041556;28;20026;-75
2022/09/15 00:37:16;;;;;;;9.75;8.75;;;17.40;98.70;;;;;;5033509;28;20034;-74
2022/09/15 00:39:41;;;;;;;9.27;8.38;;;17.50;98.80;;;;;;5034088;28;20033;-74
2022/09/15 00:42:16;;;;;;;12.35;8.77;;;17.40;98.90;;;;;;5033802;28;20375;-74
2022/09/15 00:44:55;;;;;;;15.57;9.48;;;17.40;98.80;;;;;;5035275;28;20028;-74
2022/09/15 00:47:24;;;;;;;10.30;9.20;;;17.40;99.00;;;;;;5033762;28;20045;-77
2022/09/15 00:50:01;;;;;;;12.57;8.80;;;17.40;99.10;;;;;;5033773;28;20017;-75
2022/09/15 00:52:34;;;;;;;10.85;9.00;;;17.40;99.00;;;;;;5033719;28;20083;-78
2022/09/15 00:55:07;;;;;;;12.20;9.30;;;17.40;99.10;;;;;;5042857;28;20017;-76
2022/09/15 00:57:39;;;;;;;10.73;9.63;;;17.40;99.20;;;;;;5046882;28;20483;-75
2022/09/15 01:00:10;;;;;;;12.52;9.85;;;17.40;99.20;;;;;;5033523;28;20026;-75
2022/09/15 01:02:37;;;;;;;12.52;9.60;;;17.30;99.10;;;;;;5033408;28;20462;-76
2022/09/15 01:05:06;;;;;;;9.77;8.75;;;17.30;99.20;;;;;;5041006;28;20485;-75
2022/09/15 01:07:48;;;;;;;13.55;9.68;;;17.40;99.30;;;;;;5051437;28;20505;-75
2022/09/15 01:10:22;;;;;;;10.63;9.57;;;17.40;99.50;;;;;;5053081;28;20028;-75
2022/09/15 01:12:47;;;;;;;11.23;9.52;;;17.40;99.20;;;;;;5053029;28;20069;-75
2022/09/15 01:15:14;;;;;;;12.35;9.77;;;17.40;99.20;;;;;;5044587;28;20056;-75
2022/09/15 01:18:02;;;;;;;14.88;10.57;;;17.40;99.30;;;;;;5033133;28;20041;-75
2022/09/15 01:20:59;;;;;;;12.38;9.32;;;17.40;99.30;;;;;;5031791;28;20541;-74
2022/09/15 01:23:26;;;;;;;11.40;10.10;;;17.30;99.40;;;;;;5032845;28;20099;-75
2022/09/15 01:26:06;;;;;;;15.07;10.43;;;17.30;99.40;;;;;;5046120;28;20025;-75
2022/09/15 01:28:40;;;;;;;15.48;10.45;;;17.30;99.50;;;;;;5053291;28;20119;-76
2022/09/15 01:33:02;;;;;;;13.82;10.05;;;17.30;99.60;;;;;;5053002;28;20021;-75
2022/09/15 01:34:25;;;;;;;12.30;10.20;;;17.30;99.70;;;;;;5052658;28;20151;-75
2022/09/15 01:36:58;;;;;;;11.73;9.88;;;17.40;99.60;;;;;;5051046;28;20104;-74
2022/09/15 01:39:27;;;;;;;11.70;9.82;;;17.30;99.70;;;;;;5050913;28;20094;-74
2022/09/15 01:42:02;;;;;;;14.02;10.07;;;17.40;99.80;;;;;;5053038;28;20041;-74
2022/09/15 01:44:48;;;;;;;15.57;10.05;;;17.40;99.80;;;;;;5052753;28;20500;-75
2022/09/15 01:47:17;;;;;;;12.00;10.05;;;17.40;99.80;;;;;;5051552;28;20036;-74
2022/09/15 01:49:42;;;;;;;13.73;11.13;;;17.40;99.80;;;;;;5052358;28;20035;-74
2022/09/15 01:52:08;;;;;;;13.95;9.80;;;17.40;99.80;;;;;;5052927;28;20022;-74
2022/09/15 01:54:44;;;;;;;15.23;10.65;;;17.40;99.80;;;;;;5052469;28;20359;-74
2022/09/15 01:57:10;;;;;;;12.65;10.70;;;17.40;99.90;;;;;;5050849;28;20029;-74
2022/09/15 01:59:36;;;;;;;14.27;9.77;;;17.40;99.90;;;;;;5052104;28;20035;-74
2022/09/15 02:02:11;;;;;;;11.50;9.27;;;17.40;99.80;;;;;;5052974;28;20022;-74
2022/09/15 02:04:45;;;;;;;14.73;9.73;;;17.50;99.90;;;;;;5052721;28;20017;-77
2022/09/15 02:07:34;;;;;;;15.40;10.90;;;17.40;99.90;;;;;;5039877;28;20064;-76
2022/09/15 02:10:10;;;;;;;16.35;10.60;;;17.40;99.90;;;;;;5035004;28;20112;-75
2022/09/15 02:12:44;;;;;;;13.60;10.75;;;17.40;99.90;;;;;;5036818;28;20061;-74
2022/09/15 02:15:13;;;;;;;13.88;11.05;;;17.50;99.90;;;;;;5036732;28;20029;-75
2022/09/15 02:17:49;;;;;;;14.40;10.85;;;17.50;99.90;;;;;;5052364;28;20100;-75
2022/09/15 02:20:37;;;;;;;13.50;11.07;;;17.40;99.90;;;;;;5056214;28;20033;-74
2022/09/15 02:23:24;;;;;;;13.50;10.65;;;17.50;99.90;;;;;;5056478;28;20029;-77
2022/09/15 02:25:54;;;;;;;18.15;11.10;;;17.50;99.90;;;;;;5054725;28;20024;-75
2022/09/15 02:28:24;;;;;;;15.25;11.63;;;17.50;99.90;;;;;;5036529;28;20052;-75
2022/09/15 02:30:54;;;;;;;15.40;11.50;;;17.50;99.90;;;;;;5036353;28;20091;-75
2022/09/15 02:33:24;;;;;;;16.23;11.82;;;17.50;99.90;;;;;;5036127;28;20475;-75
2022/09/15 02:35:51;;;;;;;16.65;12.02;;;17.50;99.90;;;;;;5036939;28;20028;-75
2022/09/15 02:38:17;;;;;;;19.65;13.30;;;17.50;99.90;;;;;;5049489;28;20026;-75
2022/09/15 02:40:43;;;;;;;15.95;12.60;;;17.50;99.90;;;;;;5036168;28;20098;-76
2022/09/15 02:43:14;;;;;;;16.38;12.32;;;17.50;99.90;;;;;;5036205;28;20104;-77
2022/09/15 02:45:40;;;;;;;14.27;12.77;;;17.50;99.90;;;;;;5036215;28;20032;-75
2022/09/15 02:48:08;;;;;;;14.77;13.15;;;17.50;99.90;;;;;;5038812;28;20064;-74
2022/09/15 02:50:34;;;;;;;14.07;12.57;;;17.60;99.90;;;;;;5055700;28;20025;-76
2022/09/15 02:53:00;;;;;;;17.75;12.95;;;17.50;99.90;;;;;;5053419;28;20057;-76
2022/09/15 02:55:27;;;;;;;18.98;13.52;;;17.50;99.90;;;;;;5049448;28;20052;-74
2022/09/15 02:57:54;;;;;;;14.60;12.98;;;17.50;99.90;;;;;;5054673;28;20029;-76
2022/09/15 03:00:19;;;;;;;15.65;13.10;;;17.50;99.90;;;;;;5033854;28;20021;-74
2022/09/15 03:02:49;;;;;;;14.90;13.45;;;17.50;99.90;;;;;;5034838;28;20497;-74
2022/09/15 03:05:16;;;;;;;14.93;13.27;;;17.50;99.90;;;;;;5035767;28;20026;-77
2022/09/15 03:07:42;;;;;;;15.52;12.48;;;17.50;99.90;;;;;;5035407;28;20496;-75
2022/09/15 03:10:10;;;;;;;16.73;13.63;;;17.50;99.90;;;;;;5040980;28;20022;-74
2022/09/15 03:12:44;;;;;;;16.48;13.70;;;17.50;99.90;;;;;;5035106;28;20037;-74
2022/09/15 03:15:11;;;;;;;17.80;13.00;;;17.40;99.90;;;;;;5035151;28;20029;-75
2022/09/15 03:17:40;;;;;;;14.85;13.32;;;17.50;99.90;;;;;;5035597;28;20017;-76
2022/09/15 03:20:07;;;;;;;15.23;12.95;;;17.40;99.90;;;;;;5046051;28;20029;-75
2022/09/15 03:22:33;;;;;;;15.50;12.82;;;17.40;99.90;;;;;;5054605;28;20025;-75
2022/09/15 03:24:59;;;;;;;15.45;13.15;;;17.40;99.90;;;;;;5054078;28;20059;-74
2022/09/15 03:27:25;;;;;;;17.38;13.55;;;17.40;99.90;;;;;;5055181;28;20036;-76
2022/09/15 03:29:51;;;;;;;15.70;13.30;;;17.40;99.90;;;;;;5045671;28;20453;-75
2022/09/15 03:32:17;;;;;;;14.65;13.15;;;17.40;99.90;;;;;;5047562;28;20422;-74
2022/09/15 03:34:42;;;;;;;17.60;13.10;;;17.40;99.90;;;;;;5055060;28;20037;-75
2022/09/15 03:37:08;;;;;;;16.20;13.45;;;17.40;99.90;;;;;;5055248;28;20025;-74
2022/09/15 03:39:33;;;;;;;15.95;13.65;;;17.40;99.90;;;;;;5049054;28;20021;-76
2022/09/15 03:41:59;;;;;;;15.90;14.23;;;17.40;99.90;;;;;;5034886;28;20390;-75
2022/09/15 03:44:24;;;;;;;16.05;14.18;;;17.40;99.90;;;;;;5035009;28;20099;-75
2022/09/15 03:46:50;;;;;;;15.73;14.00;;;17.40;99.90;;;;;;5033423;28;20352;-77
2022/09/15 03:49:16;;;;;;;19.52;14.00;;;17.40;99.90;;;;;;5040464;28;20067;-74
2022/09/15 03:51:42;;;;;;;18.23;14.60;;;17.40;99.90;;;;;;5054452;28;20029;-75
2022/09/15 03:54:08;;;;;;;17.77;13.93;;;17.30;99.90;;;;;;5054964;28;20355;-75
2022/09/15 03:56:33;;;;;;;19.67;14.77;;;17.30;99.90;;;;;;5054774;28;20028;-74
2022/09/15 03:59:01;;;;;;;16.63;14.02;;;17.40;99.90;;;;;;5051366;28;20534;-75
2022/09/15 04:01:28;;;;;;;16.05;13.98;;;17.30;99.90;;;;;;5034620;28;20029;-75
2022/09/15 04:03:53;;;;;;;16.40;14.25;;;17.40;99.90;;;;;;5034524;28;20032;-74
2022/09/15 04:06:21;;;;;;;15.95;14.35;;;17.40;99.90;;;;;;5034435;28;20025;-74
2022/09/15 04:08:47;;;;;;;15.80;14.20;;;17.40;99.90;;;;;;5034373;28;20075;-75
2022/09/15 04:11:13;;;;;;;16.58;14.02;;;17.30;99.90;;;;;;5054201;28;20056;-74
2022/09/15 04:13:40;;;;;;;16.58;14.38;;;17.30;99.90;;;;;;5054194;28;20021;-74
2022/09/15 04:16:09;;;;;;;17.17;14.23;;;17.30;99.90;;;;;;5054342;28;20040;-75
2022/09/15 04:18:35;;;;;;;20.83;15.55;;;17.20;99.90;;;;;;5054419;28;20073;-77
2022/09/15 04:21:04;;;;;;;18.02;13.63;;;17.20;99.90;;;;;;5040958;28;20439;-77
2022/09/15 04:23:30;;;;;;;16.38;13.45;;;17.20;99.90;;;;;;5053590;28;20025;-76
2022/09/15 04:26:01;;;;;;;15.52;13.88;;;17.20;99.90;;;;;;5048174;28;20402;-74
2022/09/15 04:28:30;;;;;;;16.13;14.13;;;17.20;99.90;;;;;;5052158;28;20037;-75
2022/09/15 04:31:10;;;;;;;16.88;14.68;;;17.20;99.90;;;;;;5036218;28;20060;-75
2022/09/15 04:33:37;;;;;;;19.58;14.43;;;17.20;99.90;;;;;;5032887;28;20034;-76
2022/09/15 04:36:06;;;;;;;19.60;14.50;;;17.20;99.90;;;;;;5033931;28;20482;-75
2022/09/15 04:38:31;;;;;;;15.88;14.20;;;17.20;99.90;;;;;;5034234;28;20026;-75
2022/09/15 04:40:57;;;;;;;18.38;15.10;;;17.20;99.90;;;;;;5049242;28;20024;-76
2022/09/15 04:43:24;;;;;;;17.88;15.45;;;17.20;99.90;;;;;;5053123;28;20482;-76
2022/09/15 04:45:50;;;;;;;17.00;14.55;;;17.20;99.90;;;;;;5053781;28;20028;-75
2022/09/15 04:48:16;;;;;;;16.13;14.43;;;17.20;99.90;;;;;;5053558;28;20061;-73
2022/09/15 04:50:42;;;;;;;18.38;13.60;;;16.80;99.90;;;;;;5037844;28;20059;-73
2022/09/15 04:53:08;;;;;;;17.92;14.32;;;16.10;99.90;;;;;;5033699;28;20025;-73
2022/09/15 04:55:34;;;;;;;18.08;15.98;;;15.70;99.90;;;;;;5033667;28;20559;-74
2022/09/15 04:58:03;;;;;;;17.13;15.52;;;15.50;99.90;;;;;;5033103;28;20021;-74
2022/09/15 05:00:30;;;;;;;20.15;17.15;;;15.30;99.90;;;;;;5041636;28;20722;-73
2022/09/15 05:02:57;;;;;;;16.92;15.18;;;15.30;99.90;;;;;;5040327;28;20033;-73
2022/09/15 05:05:24;;;;;;;20.25;17.38;;;15.20;99.90;;;;;;5041849;28;20023;-73
2022/09/15 05:07:50;;;;;;;22.23;17.50;;;15.30;99.90;;;;;;5038412;28;20437;-73
2022/09/15 05:10:15;;;;;;;20.70;17.02;;;15.20;99.90;;;;;;5047177;28;20056;-73
2022/09/15 05:12:41;;;;;;;19.77;17.77;;;15.10;99.90;;;;;;5045915;28;20041;-73
2022/09/15 05:15:07;;;;;;;21.85;17.77;;;15.00;99.90;;;;;;5052644;28;20021;-73
2022/09/15 05:17:33;;;;;;;22.33;18.40;;;15.00;99.90;;;;;;5039690;28;20037;-73
2022/09/15 05:19:59;;;;;;;19.25;17.13;;;15.00;99.90;;;;;;5036383;28;20390;-73
2022/09/15 05:22:26;;;;;;;21.65;18.75;;;14.90;99.90;;;;;;5047531;28;20150;-73
2022/09/15 05:24:51;;;;;;;28.02;18.75;;;14.90;99.90;;;;;;5041881;28;20063;-73
2022/09/15 05:27:17;;;;;;;19.42;17.30;;;14.90;99.90;;;;;;5039547;28;20072;-72
2022/09/15 05:29:43;;;;;;;21.23;17.92;;;14.80;99.90;;;;;;5036827;28;20485;-72
2022/09/15 05:32:08;;;;;;;20.13;18.13;;;14.80;99.90;;;;;;5043294;28;20075;-73
2022/09/15 05:34:34;;;;;;;23.63;18.98;;;14.70;99.90;;;;;;5038065;28;20057;-73
2022/09/15 05:37:00;;;;;;;25.58;20.15;;;14.60;99.90;;;;;;5053125;28;20075;-73
2022/09/15 05:39:26;;;;;;;24.33;19.45;;;14.60;99.90;;;;;;5052809;28;20032;-73
2022/09/15 05:41:51;;;;;;;19.92;17.95;;;14.60;99.90;;;;;;5047373;28;20486;-73
2022/09/15 05:44:17;;;;;;;21.83;19.17;;;14.50;99.90;;;;;;5030783;28;20030;-72
2022/09/15 05:46:43;;;;;;;20.83;18.58;;;14.50;99.90;;;;;;5045061;28;20047;-73
2022/09/15 05:49:10;;;;;;;24.38;19.85;;;14.50;99.90;;;;;;5033865;28;20022;-72
2022/09/15 05:51:36;;;;;;;20.95;18.50;;;14.50;99.90;;;;;;5035370;28;20115;-73
2022/09/15 05:54:01;;;;;;;24.10;19.48;;;14.40;99.90;;;;;;5044432;28;20143;-73
2022/09/15 05:56:27;;;;;;;20.85;16.27;;;14.50;99.90;;;;;;5044769;28;20104;-73
2022/09/15 05:58:53;;;;;;;22.73;18.27;;;14.50;99.90;;;;;;5041067;28;20032;-74
2022/09/15 06:01:27;;;;;;;21.58;17.05;;;15.30;99.90;;;;;;5034873;28;20079;-74
2022/09/15 06:03:53;;;;;;;21.85;17.70;;;15.90;99.90;;;;;;5037389;28;20101;-73
2022/09/15 06:06:20;;;;;;;14.70;11.57;;;16.40;99.90;;;;;;5034847;28;20039;-73
2022/09/15 06:08:48;;;;;;;16.83;14.02;;;16.80;99.90;;;;;;5043942;28;20029;-73
2022/09/15 06:11:16;;;;;;;18.88;14.27;;;17.00;99.90;;;;;;5039169;28;20507;-74
2022/09/15 06:13:43;;;;;;;18.85;16.38;;;17.10;99.90;;;;;;5040809;28;20028;-71
2022/09/15 06:16:11;;;;;;;17.02;15.23;;;17.20;99.90;;;;;;5032978;28;20025;-72
2022/09/15 06:18:39;;;;;;;21.55;16.58;;;17.40;99.90;;;;;;5035202;28;20025;-74
2022/09/15 06:21:25;;;;;;;21.73;19.42;;;17.40;99.90;;;;;;5030936;28;20013;-74
2022/09/15 06:23:56;;;;;;;20.00;16.17;;;17.50;99.90;;;;;;5041304;28;20026;-73
2022/09/15 06:26:22;;;;;;;21.77;19.58;;;17.60;99.90;;;;;;5030571;28;20065;-74
2022/09/15 06:28:57;;;;;;;17.60;15.80;;;17.60;99.90;;;;;;5031422;28;20038;-74
2022/09/15 06:31:24;;;;;;;17.38;14.93;;;17.70;99.90;;;;;;5039432;28;20498;-75
2022/09/15 06:33:52;;;;;;;15.68;13.75;;;17.70;99.90;;;;;;5043343;28;20025;-73
2022/09/15 06:36:19;;;;;;;15.60;13.98;;;17.70;99.90;;;;;;5047249;28;20056;-74
2022/09/15 06:38:46;;;;;;;19.15;14.32;;;17.70;99.90;;;;;;5042123;28;20025;-73
2022/09/15 06:41:11;;;;;;;16.65;13.13;;;17.70;99.90;;;;;;5042393;28;20033;-74
2022/09/15 06:43:37;;;;;;;13.05;11.23;;;17.80;99.90;;;;;;5042198;28;20037;-75
2022/09/15 06:46:08;;;;;;;18.30;15.75;;;17.80;99.90;;;;;;5031606;28;20032;-73
2022/09/15 06:48:35;;;;;;;19.25;16.30;;;17.80;99.90;;;;;;5032625;28;20029;-73
2022/09/15 06:51:02;;;;;;;20.80;17.98;;;17.90;99.90;;;;;;5032478;28;20029;-72
2022/09/15 06:53:29;;;;;;;18.67;16.27;;;17.90;99.90;;;;;;5039181;28;20025;-74
2022/09/15 06:55:54;;;;;;;19.65;15.90;;;17.80;99.90;;;;;;5032549;28;20028;-74
2022/09/15 06:58:20;;;;;;;17.10;15.27;;;17.80;99.90;;;;;;5041775;28;20017;-74
2022/09/15 07:00:45;;;;;;;18.70;16.25;;;17.80;99.90;;;;;;5042541;28;20044;-74
2022/09/15 07:03:12;;;;;;;21.00;16.40;;;17.70;99.90;;;;;;5035331;28;20425;-76
2022/09/15 07:05:37;;;;;;;17.98;15.15;;;17.70;99.90;;;;;;5037923;28;20021;-73
2022/09/15 07:08:03;;;;;;;21.75;16.50;;;17.80;99.90;;;;;;5046328;28;20029;-74
2022/09/15 07:10:28;;;;;;;20.42;16.48;;;17.80;99.90;;;;;;5046399;28;20151;-74
2022/09/15 07:12:54;;;;;;;19.60;16.00;;;17.90;99.90;;;;;;5037060;28;20148;-73
2022/09/15 07:15:22;;;;;;;20.42;16.50;;;17.90;99.90;;;;;;5047988;28;20079;-73
2022/09/15 07:17:47;;;;;;;19.75;16.05;;;17.90;99.90;;;;;;5046521;28;20040;-73
2022/09/15 07:20:13;;;;;;;19.17;15.10;;;17.80;99.90;;;;;;5042370;28;20017;-73
2022/09/15 07:22:38;;;;;;;19.67;14.85;;;17.90;99.90;;;;;;5041302;28;20493;-74
2022/09/15 07:25:04;;;;;;;18.70;15.98;;;17.90;99.90;;;;;;5047760;28;20021;-74
2022/09/15 07:27:30;;;;;;;18.10;15.68;;;18.00;99.90;;;;;;5049181;28;20116;-74
2022/09/15 07:29:57;;;;;;;20.58;15.73;;;17.90;99.90;;;;;;5056530;28;20033;-74
2022/09/15 07:32:23;;;;;;;22.35;15.70;;;17.90;99.90;;;;;;5058891;28;20029;-73
2022/09/15 07:34:50;;;;;;;19.50;14.88;;;17.90;99.90;;;;;;5060538;28;20020;-81
2022/09/15 07:37:15;;;;;;;17.40;15.60;;;18.00;99.90;;;;;;5069498;28;20035;-78
2022/09/15 07:39:41;;;;;;;17.20;15.38;;;18.00;99.90;;;;;;5043043;28;20032;-81
2022/09/15 07:42:06;;;;;;;20.00;15.43;;;18.00;99.90;;;;;;5049294;28;20047;-77
2022/09/15 07:44:32;;;;;;;16.70;14.65;;;18.00;99.90;;;;;;5040722;28;20022;-76
2022/09/15 07:46:57;;;;;;;18.30;14.30;;;18.00;99.90;;;;;;5040184;28;20512;-79
2022/09/15 07:49:23;;;;;;;19.00;14.30;;;18.00;99.90;;;;;;5050053;28;20100;-79
2022/09/15 07:51:48;;;;;;;19.23;14.00;;;18.10;99.90;;;;;;5041113;28;20021;-79
2022/09/15 07:54:14;;;;;;;21.60;14.13;;;18.10;99.90;;;;;;5046748;28;20496;-80
2022/09/15 07:56:39;;;;;;;15.23;13.82;;;18.00;99.90;;;;;;5065948;28;20466;-79
2022/09/15 07:59:06;;;;;;;17.55;13.52;;;18.10;99.90;;;;;;5055035;28;20040;-80
2022/09/15 08:01:32;;;;;;;20.23;13.85;;;18.10;99.90;;;;;;5060304;28;20018;-80
2022/09/15 08:03:57;;;;;;;18.20;14.73;;;18.10;99.90;;;;;;5055382;28;20089;-79
2022/09/15 08:06:25;;;;;;;14.90;12.73;;;18.10;99.90;;;;;;5049186;28;20025;-79
2022/09/15 08:08:51;;;;;;;14.93;11.93;;;18.10;99.90;;;;;;5062577;28;20064;-80
2022/09/15 08:11:18;;;;;;;18.85;13.35;;;18.10;99.90;;;;;;5041120;28;20064;-80
2022/09/15 08:13:49;;;;;;;15.77;12.25;;;18.10;99.90;;;;;;5056205;28;20030;-80
2022/09/15 08:16:17;;;;;;;17.02;12.52;;;18.10;99.90;;;;;;5054635;28;20036;-80
2022/09/15 08:18:44;;;;;;;14.05;10.38;;;18.10;99.90;;;;;;5046067;28;20478;-80
2022/09/15 08:21:15;;;;;;;13.60;10.93;;;18.10;99.90;;;;;;5057069;28;20021;-77
2022/09/15 08:23:41;;;;;;;15.65;11.10;;;18.10;99.90;;;;;;5045527;28;20052;-79
2022/09/15 08:26:09;;;;;;;11.40;8.40;;;18.20;99.90;;;;;;5035405;28;20032;-79
2022/09/15 08:28:34;;;;;;;10.48;8.68;;;18.20;99.90;;;;;;5032334;28;20030;-79
2022/09/15 08:31:06;;;;;;;12.35;9.32;;;18.20;99.90;;;;;;5035777;28;20039;-79
2022/09/15 08:33:32;;;;;;;11.35;8.45;;;18.30;99.90;;;;;;5032658;28;20121;-75
2022/09/15 08:36:03;;;;;;;12.80;7.15;;;18.30;99.90;;;;;;5033632;28;20450;-77
2022/09/15 08:38:29;;;;;;;9.90;6.43;;;18.30;99.90;;;;;;5035141;28;20036;-77
2022/09/15 08:41:08;;;;;;;10.35;6.60;;;18.30;99.90;;;;;;5030711;28;20564;-75
2022/09/15 08:44:02;;;;;;;10.23;5.03;;;18.30;99.90;;;;;;5040046;28;20106;-75
2022/09/15 08:46:41;;;;;;;9.23;4.70;;;18.30;99.90;;;;;;5046498;28;20482;-71
2022/09/15 08:49:17;;;;;;;11.10;4.68;;;18.30;99.90;;;;;;5036934;28;20025;-75
2022/09/15 08:51:46;;;;;;;7.72;4.10;;;18.50;99.90;;;;;;5042499;28;20072;-74
2022/09/15 08:54:22;;;;;;;8.15;4.60;;;18.50;99.90;;;;;;5031371;28;20067;-74
2022/09/15 08:56:48;;;;;;;8.60;3.80;;;18.50;99.90;;;;;;5033508;28;20049;-75
2022/09/15 08:59:18;;;;;;;6.72;3.40;;;18.60;99.90;;;;;;5047388;28;20068;-74
2022/09/15 09:02:11;;;;;;;8.13;2.90;;;18.60;99.90;;;;;;5032766;28;20017;-74
2022/09/15 09:05:14;;;;;;;8.73;2.88;;;19.00;99.90;;;;;;5030897;28;20034;-74
2022/09/15 09:08:18;;;;;;;9.93;2.40;;;19.20;99.90;;;;;;5032848;28;20038;-74
2022/09/15 09:11:02;;;;;;;9.75;2.80;;;19.30;99.40;;;;;;4991914;28;20084;-76
2022/09/15 09:13:42;;;;;;;8.60;2.65;;;19.30;99.00;;;;;;5030420;28;20040;-75
2022/09/15 09:16:31;;;;;;;6.40;2.97;;;19.40;98.90;;;;;;5033196;28;20107;-75
2022/09/15 09:19:24;;;;;;;9.07;2.20;;;19.50;98.90;;;;;;5032498;28;20109;-75
2022/09/15 09:22:03;;;;;;;6.90;2.13;;;19.50;98.90;;;;;;5033320;28;20025;-75
2022/09/15 09:24:35;;;;;;;6.35;2.28;;;19.50;98.70;;;;;;5033237;28;20025;-75
2022/09/15 09:27:01;;;;;;;;;;;19.50;98.50;;;;;;5033387;28;20037;-76
2022/09/15 09:29:38;;;;;;;4.88;1.85;;;19.50;98.30;;;;;;5033040;28;19912;-75
2022/09/15 09:32:16;;;;;;;4.15;1.90;;;19.60;98.20;;;;;;5032958;28;20100;-74
2022/09/15 09:34:54;;;;;;;6.85;2.15;;;19.60;98.20;;;;;;5033145;28;20018;-74
2022/09/15 09:37:20;;;;;;;6.10;1.90;;;19.60;98.30;;;;;;5031705;28;20083;-75
2022/09/15 09:39:46;;;;;;;4.13;1.75;;;19.60;98.10;;;;;;5032967;28;20530;-75
2022/09/15 09:42:15;;;;;;;6.38;1.88;;;19.60;98.00;;;;;;5032966;28;20095;-75
2022/09/15 09:44:41;;;;;;;5.57;1.75;;;19.70;98.10;;;;;;5032906;28;20025;-75
2022/09/15 09:47:07;;;;;;;4.35;1.60;;;19.70;98.00;;;;;;5031323;28;20021;-75
2022/09/15 09:49:34;;;;;;;3.42;1.60;;;19.70;97.90;;;;;;5032889;28;20435;-74
2022/09/15 09:52:02;;;;;;;5.82;1.60;;;19.70;97.70;;;;;;5031778;28;20024;-75
2022/09/15 09:54:32;;;;;;;3.17;1.17;;;19.80;97.50;;;;;;5032757;28;20101;-74
2022/09/15 09:57:13;;;;;;;4.55;1.20;;;19.70;97.40;;;;;;5033013;28;20018;-75
2022/09/15 09:59:44;;;;;;;3.55;1.23;;;19.70;97.40;;;;;;5033299;28;20021;-75
2022/09/15 10:02:09;;;;;;;3.97;1.55;;;19.80;97.00;;;;;;5032924;28;20074;-75
2022/09/15 10:04:40;;;;;;;5.00;1.65;;;19.80;97.00;;;;;;5032750;28;20025;-76
2022/09/15 10:07:06;;;;;;;3.70;1.30;;;19.80;97.00;;;;;;5032771;28;20037;-74
2022/09/15 10:09:32;;;;;;;3.05;1.00;;;19.80;97.10;;;;;;5031126;28;20462;-75
2022/09/15 10:12:00;;;;;;;4.10;1.17;;;19.90;96.80;;;;;;5031540;28;20121;-75
2022/09/15 10:14:31;;;;;;;5.78;1.30;;;19.90;96.80;;;;;;5032648;28;20057;-76
2022/09/15 10:17:09;;;;;;;5.73;1.60;;;19.90;96.60;;;;;;5032515;28;20032;-75
2022/09/15 10:19:55;;;;;;;5.00;0.95;;;19.90;96.70;;;;;;5037407;28;20832;-75
2022/09/15 10:22:32;;;;;;;4.18;1.10;;;19.90;97.10;;;;;;5064657;28;20037;-76
2022/09/15 10:24:59;;;;;;;5.03;1.10;;;19.90;96.80;;;;;;5057203;28;20033;-75
2022/09/15 10:27:32;;;;;;;3.88;1.02;;;19.90;96.80;;;;;;5052394;28;20474;-76
2022/09/15 10:30:18;;;;;;;4.00;0.90;;;19.90;96.80;;;;;;5051958;28;20033;-75
2022/09/15 10:32:44;;;;;;;3.75;0.52;;;19.90;96.90;;;;;;5055838;28;20546;-75
2022/09/15 10:35:17;;;;;;;3.08;0.75;;;19.90;96.70;;;;;;5056256;28;20096;-74
2022/09/15 10:37:50;;;;;;;2.67;0.93;;;19.90;96.70;;;;;;5056669;28;20049;-74
2022/09/15 10:40:22;;;;;;;3.13;0.80;;;19.90;96.60;;;;;;5054369;28;20032;-73
2022/09/15 10:42:49;;;;;;;4.05;0.95;;;19.90;96.60;;;;;;5045370;28;20037;-74
2022/09/15 10:45:17;;;;;;;2.97;0.73;;;19.90;96.80;;;;;;5036299;28;20096;-75
2022/09/15 10:48:19;;;;;;;2.47;0.55;;;19.90;96.80;;;;;;5036011;28;20041;-74
2022/09/15 10:50:47;;;;;;;5.75;1.10;;;19.90;96.90;;;;;;5036063;28;20033;-74
2022/09/15 10:53:34;;;;;;;5.75;0.98;;;20.00;96.80;;;;;;5034807;28;20483;-74
2022/09/15 10:56:25;;;;;;;3.70;0.80;;;19.90;96.40;;;;;;5035999;28;20101;-74
2022/09/15 10:59:14;;;;;;;4.38;0.82;;;19.90;96.70;;;;;;5036002;28;20108;-75
2022/09/15 11:02:03;;;;;;;3.00;0.90;;;19.90;96.40;;;;;;5035775;28;20520;-74
2022/09/15 11:04:41;;;;;;;2.40;0.88;;;19.90;96.50;;;;;;5035833;28;20028;-75
2022/09/15 11:07:53;;;;;;;3.63;0.88;;;19.90;96.70;;;;;;5035907;28;20117;-75
2022/09/15 11:10:28;;;;;;;4.15;0.85;;;19.90;96.30;;;;;;5035827;28;20025;-74
2022/09/15 11:13:32;;;;;;;4.95;0.70;;;19.90;96.60;;;;;;5035502;28;20045;-75
2022/09/15 11:16:15;;;;;;;3.78;0.73;;;19.90;96.50;;;;;;5014298;28;20117;-75
2022/09/15 11:18:50;;;;;;;3.10;0.90;;;19.90;96.40;;;;;;5033649;28;20124;-74
2022/09/15 11:21:23;;;;;;;6.55;1.38;;;20.00;96.30;;;;;;5035770;28;20095;-74
2022/09/15 11:24:13;;;;;;;3.83;0.70;;;20.00;95.80;;;;;;5035700;28;20025;-75
2022/09/15 11:26:46;;;;;;;3.67;0.75;;;20.00;96.00;;;;;;5035141;28;20029;-75
2022/09/15 11:29:25;;;;;;;4.43;1.08;;;20.10;95.90;;;;;;5035249;28;20034;-74
2022/09/15 11:31:57;;;;;;;6.18;0.80;;;20.10;95.70;;;;;;5035370;28;20040;-75
2022/09/15 11:34:32;;;;;;;4.55;1.10;;;20.10;95.70;;;;;;5035203;28;20021;-72
2022/09/15 11:37:20;;;;;;;3.58;0.85;;;20.00;95.50;;;;;;5035051;28;20021;-74
2022/09/15 11:39:55;;;;;;;4.35;0.93;;;20.20;95.80;;;;;;5047417;28;20057;-73
2022/09/15 11:42:53;;;;;;;3.25;0.85;;;20.30;95.90;;;;;;5053374;28;20063;-74
2022/09/15 11:45:24;;;;;;;5.15;1.10;;;20.30;95.80;;;;;;5054433;28;20079;-75
2022/09/15 11:47:55;;;;;;;4.13;0.70;;;20.30;95.40;;;;;;5054791;28;20112;-74
2022/09/15 11:50:32;;;;;;;7.25;1.55;;;20.30;95.40;;;;;;5053107;28;20156;-73
2022/09/15 11:53:07;;;;;;;3.25;0.88;;;20.30;95.40;;;;;;5054778;28;20021;-74
2022/09/15 11:55:44;;;;;;;7.07;0.95;;;20.30;95.40;;;;;;5050244;28;20005;-74
2022/09/15 11:58:43;;;;;;;6.00;1.08;;;20.30;95.40;;;;;;5053879;28;20052;-73
2022/09/15 12:01:19;;;;;;;5.50;1.00;;;20.30;95.30;;;;;;5054468;28;20025;-73
2022/09/15 12:03:55;;;;;;;4.93;0.77;;;20.30;95.20;;;;;;5054052;28;20024;-73
2022/09/15 12:06:40;;;;;;;3.95;1.05;;;20.40;95.40;;;;;;5054305;28;20164;-73
2022/09/15 12:09:10;;;;;;;7.30;1.50;;;20.40;95.70;;;;;;5054547;28;20025;-73
2022/09/15 12:11:42;;;;;;;4.95;1.02;;;20.50;95.70;;;;;;5053431;28;20056;-73
2022/09/15 12:14:35;;;;;;;4.55;0.65;;;20.50;95.80;;;;;;5054416;28;20478;-73
2022/09/15 12:17:04;;;;;;;4.30;0.90;;;20.50;95.70;;;;;;5050885;28;20047;-73
2022/09/15 12:19:32;;;;;;;5.40;1.10;;;20.50;95.70;;;;;;5054177;28;20017;-72
2022/09/15 12:22:22;;;;;;;3.58;1.08;;;20.50;95.70;;;;;;5054223;28;20039;-73
2022/09/15 12:24:58;;;;;;;4.90;0.85;;;20.50;95.20;;;;;;5054020;28;20058;-73
2022/09/15 12:27:24;;;;;;;5.47;0.98;;;20.60;94.90;;;;;;5053307;28;20014;-73
2022/09/15 12:29:59;;;;;;;4.63;0.75;;;20.60;94.60;;;;;;5053923;28;20580;-73
2022/09/15 12:32:33;;;;;;;5.30;0.95;;;20.60;94.80;;;;;;5049011;28;20017;-75
2022/09/15 12:35:29;;;;;;;3.17;0.68;;;20.60;94.70;;;;;;5039484;28;20026;-74
2022/09/15 12:37:57;;;;;;;4.63;0.60;;;20.60;93.10;;;;;;5033941;28;20052;-74
2022/09/15 12:40:28;;;;;;;5.63;0.70;;;20.60;94.10;;;;;;5039231;28;20056;-74
2022/09/15 12:43:10;;;;;;;3.53;0.77;;;20.60;93.90;;;;;;5053255;28;20036;-74
2022/09/15 12:45:37;;;;;;;4.03;0.50;;;20.60;93.60;;;;;;5034522;28;20079;-74
2022/09/15 12:48:22;;;;;;;5.22;1.23;;;20.60;93.60;;;;;;5032496;28;20037;-74
2022/09/15 12:51:09;;;;;;;5.07;1.10;;;20.60;93.70;;;;;;5033626;28;20140;-73
2022/09/15 12:54:03;;;;;;;5.45;0.68;;;20.70;93.70;;;;;;5040239;28;20025;-75
2022/09/15 12:56:31;;;;;;;6.25;0.80;;;20.70;93.60;;;;;;5046926;28;20029;-75